createdAt,value
2022-09-28T00:00:04.464Z,2.5
2022-09-28T00:01:04.484Z,2.5
2022-09-28T00:02:04.692Z,2.71429
2022-09-28T00:03:04.667Z,2.5
2022-09-28T00:04:04.573Z,2.42857
2022-09-28T00:05:04.609Z,2.5
2022-09-28T00:06:04.652Z,2.42857
2022-09-28T00:07:04.683Z,2.5
2022-09-28T00:08:04.721Z,2.35714
2022-09-28T00:09:04.758Z,2.21429
2022-09-28T00:10:04.794Z,2.35714
2022-09-28T00:11:04.826Z,2.5
2022-09-28T00:12:04.860Z,2.64286
2022-09-28T00:13:04.900Z,2.21429
2022-09-28T00:14:04.930Z,2.5
2022-09-28T00:15:04.965Z,2.5
2022-09-28T00:16:05.074Z,2.71429
2022-09-28T00:17:05.028Z,2.5
2022-09-28T00:18:05.063Z,2.92857
2022-09-28T00:19:05.099Z,3.14286
2022-09-28T00:20:05.134Z,2.5
2022-09-28T00:21:05.171Z,2.42857
2022-09-28T00:22:05.199Z,2.71429
2022-09-28T00:23:05.239Z,2.42857
2022-09-28T00:24:05.266Z,3.42857
2022-09-28T00:25:05.300Z,2.64286
2022-09-28T00:26:05.344Z,2.5
2022-09-28T00:27:05.360Z,2.64286
2022-09-28T00:28:05.405Z,2.85714
2022-09-28T00:29:05.437Z,2.71429
2022-09-28T00:30:05.478Z,3.21429
2022-09-28T00:31:05.581Z,2.71429
2022-09-28T00:32:05.551Z,2.85714
2022-09-28T00:33:05.583Z,2.71429
2022-09-28T00:34:05.617Z,3
2022-09-28T00:35:05.651Z,2.85714
2022-09-28T00:36:05.685Z,2.85714
2022-09-28T00:37:05.721Z,2.71429
2022-09-28T00:38:05.764Z,2.85714
2022-09-28T00:39:05.791Z,2.64286
2022-09-28T00:40:05.821Z,2.21429
2022-09-28T00:41:05.866Z,3
2022-09-28T00:42:05.903Z,3
2022-09-28T00:43:05.931Z,2.92857
2022-09-28T00:44:06.018Z,2.42857
2022-09-28T00:45:06.003Z,2.85714
2022-09-28T00:46:06.100Z,2.64286
2022-09-28T00:47:06.064Z,2.92857
2022-09-28T00:48:06.095Z,2.92857
2022-09-28T00:49:06.116Z,2.92857
2022-09-28T00:50:06.154Z,2.85714
2022-09-28T00:51:06.191Z,2.85714
2022-09-28T00:52:06.226Z,2.71429
2022-09-28T00:53:06.266Z,2.92857
2022-09-28T00:54:06.309Z,2.42857
2022-09-28T00:55:06.338Z,2.85714
2022-09-28T00:56:06.375Z,2.64286
2022-09-28T00:57:06.407Z,2.71429
2022-09-28T00:58:06.460Z,2.85714
2022-09-28T00:59:06.480Z,3
2022-09-28T01:00:06.512Z,2.85714
2022-09-28T01:01:06.684Z,2.92857
2022-09-28T01:02:06.653Z,3.14286
2022-09-28T01:03:06.632Z,2.85714
2022-09-28T01:04:06.644Z,3.42857
2022-09-28T01:05:06.684Z,3.21429
2022-09-28T01:06:06.729Z,3.14286
2022-09-28T01:07:06.755Z,3.35714
2022-09-28T01:08:06.780Z,3.21429
2022-09-28T01:09:06.818Z,3.64286
2022-09-28T01:10:06.856Z,3.21429
2022-09-28T01:11:06.891Z,2.92857
2022-09-28T01:12:06.928Z,3.35714
2022-09-28T01:13:06.961Z,3.35714
2022-09-28T01:14:06.991Z,3.14286
2022-09-28T01:15:07.024Z,3.14286
2022-09-28T01:16:07.144Z,3.5
2022-09-28T01:17:07.093Z,2.92857
2022-09-28T01:18:07.123Z,3
2022-09-28T01:19:07.163Z,3.21429
2022-09-28T01:20:07.201Z,3.35714
2022-09-28T01:21:07.236Z,3
2022-09-28T01:22:07.273Z,3.42857
2022-09-28T01:23:07.306Z,3.14286
2022-09-28T01:24:07.345Z,3.5
2022-09-28T01:25:07.368Z,3.21429
2022-09-28T01:26:07.397Z,3.21429
2022-09-28T01:27:07.439Z,3.21429
2022-09-28T01:28:07.469Z,3.14286
2022-09-28T01:29:07.499Z,3.21429
2022-09-28T01:30:07.532Z,3.42857
2022-09-28T01:31:07.682Z,2.92857
2022-09-28T01:32:07.598Z,3.64286
2022-09-28T01:33:07.639Z,3.21429
2022-09-28T01:34:07.675Z,3.21429
2022-09-28T01:35:07.715Z,3
2022-09-28T01:36:07.759Z,3.35714
2022-09-28T01:37:07.787Z,3.14286
2022-09-28T01:38:07.827Z,2.92857
2022-09-28T01:39:07.857Z,3.14286
2022-09-28T01:40:07.890Z,2.85714
2022-09-28T01:41:07.926Z,2.92857
2022-09-28T01:42:07.961Z,2.92857
2022-09-28T01:43:07.990Z,3.14286
2022-09-28T01:44:08.031Z,3.21429
2022-09-28T01:45:08.067Z,3.42857
2022-09-28T01:46:08.205Z,3
2022-09-28T01:47:08.145Z,2.92857
2022-09-28T01:48:08.173Z,2.92857
2022-09-28T01:49:08.219Z,2.64286
2022-09-28T01:50:08.245Z,3
2022-09-28T01:51:08.279Z,2.71429
2022-09-28T01:52:08.304Z,2.85714
2022-09-28T01:53:08.333Z,3
2022-09-28T01:54:08.362Z,3.21429
2022-09-28T01:55:08.399Z,2.92857
2022-09-28T01:56:08.435Z,2.85714
2022-09-28T01:57:08.476Z,3.21429
2022-09-28T01:58:08.514Z,2.92857
2022-09-28T01:59:08.540Z,2.92857
2022-09-28T02:00:08.567Z,2.85714
2022-09-28T02:01:08.669Z,3
2022-09-28T02:02:08.679Z,2.5
2022-09-28T02:03:08.662Z,2.92857
2022-09-28T02:04:08.699Z,3.14286
2022-09-28T02:05:08.727Z,2.92857
2022-09-28T02:06:08.757Z,3.14286
2022-09-28T02:07:08.791Z,3.14286
2022-09-28T02:08:08.821Z,3.14286
2022-09-28T02:09:08.857Z,2.92857
2022-09-28T02:10:08.890Z,3
2022-09-28T02:11:08.924Z,3.42857
2022-09-28T02:12:08.958Z,3.42857
2022-09-28T02:13:08.997Z,3.14286
2022-09-28T02:14:09.031Z,3.21429
2022-09-28T02:15:09.063Z,2.92857
2022-09-28T02:16:09.145Z,3
2022-09-28T02:17:09.127Z,3.21429
2022-09-28T02:18:09.161Z,3.42857
2022-09-28T02:19:09.270Z,3.42857
2022-09-28T02:20:09.232Z,3.14286
2022-09-28T02:21:09.275Z,3.14286
2022-09-28T02:22:09.310Z,3.21429
2022-09-28T02:23:09.344Z,3.21429
2022-09-28T02:24:09.374Z,3.5
2022-09-28T02:25:09.413Z,3
2022-09-28T02:26:09.446Z,3.21429
2022-09-28T02:27:09.480Z,2.85714
2022-09-28T02:28:09.509Z,3.14286
2022-09-28T02:29:09.553Z,3.21429
2022-09-28T02:30:09.590Z,3.5
2022-09-28T02:31:09.637Z,3.21429
2022-09-28T02:32:09.651Z,3.42857
2022-09-28T02:33:09.684Z,3.21429
2022-09-28T02:34:09.711Z,3.42857
2022-09-28T02:35:09.737Z,2.92857
2022-09-28T02:36:09.770Z,3.5
2022-09-28T02:37:09.798Z,3.71429
2022-09-28T02:38:09.832Z,3.5
2022-09-28T02:39:09.863Z,3.71429
2022-09-28T02:40:09.904Z,3.42857
2022-09-28T02:41:09.945Z,3.35714
2022-09-28T02:42:09.973Z,3.64286
2022-09-28T02:43:10.008Z,3.5
2022-09-28T02:44:10.053Z,3.5
2022-09-28T02:45:10.091Z,3
2022-09-28T02:46:10.183Z,3.35714
2022-09-28T02:47:10.149Z,3.5
2022-09-28T02:48:10.189Z,3.42857
2022-09-28T02:49:21.336Z,3.64286
2022-09-28T02:50:10.252Z,3.64286
2022-09-28T02:51:10.285Z,3.42857
2022-09-28T02:52:10.323Z,3.71429
2022-09-28T02:53:10.353Z,3.42857
2022-09-28T02:54:10.397Z,3.42857
2022-09-28T02:55:10.430Z,3.42857
2022-09-28T02:56:10.458Z,3.42857
2022-09-28T02:57:10.489Z,3.64286
2022-09-28T02:58:10.521Z,3.35714
2022-09-28T02:59:10.594Z,3.71429
2022-09-28T03:00:10.601Z,3.85714
2022-09-28T03:01:10.706Z,3.5
2022-09-28T03:02:10.747Z,4
2022-09-28T03:03:10.695Z,3.42857
2022-09-28T03:04:10.731Z,4.14286
2022-09-28T03:05:10.767Z,3.85714
2022-09-28T03:06:10.800Z,4.35714
2022-09-28T03:07:10.839Z,3.85714
2022-09-28T03:08:10.867Z,3.85714
2022-09-28T03:09:10.973Z,3.92857
2022-09-28T03:10:10.940Z,4
2022-09-28T03:11:10.970Z,4.14286
2022-09-28T03:12:10.994Z,4.14286
2022-09-28T03:13:11.032Z,4.42857
2022-09-28T03:14:11.071Z,4
2022-09-28T03:15:11.090Z,4.42857
2022-09-28T03:16:11.163Z,4.64286
2022-09-28T03:17:11.153Z,4.42857
2022-09-28T03:18:11.184Z,4.5
2022-09-28T03:19:11.215Z,4.21429
2022-09-28T03:20:11.253Z,4.35714
2022-09-28T03:21:11.282Z,4.5
2022-09-28T03:22:11.318Z,4.42857
2022-09-28T03:23:24.861Z,4.71429
2022-09-28T03:24:11.400Z,4.64286
2022-09-28T03:25:11.431Z,4.5
2022-09-28T03:26:11.465Z,5
2022-09-28T03:27:11.499Z,4.35714
2022-09-28T03:28:11.546Z,4.42857
2022-09-28T03:29:11.586Z,5.14286
2022-09-28T03:30:11.622Z,5
2022-09-28T03:31:11.730Z,5.14286
2022-09-28T03:32:11.694Z,5.21429
2022-09-28T03:33:11.728Z,4.85714
2022-09-28T03:34:11.763Z,5.14286
2022-09-28T03:35:11.799Z,5.14286
2022-09-28T03:36:11.841Z,5.21429
2022-09-28T03:37:11.870Z,5.35714
2022-09-28T03:38:11.903Z,5
2022-09-28T03:39:11.929Z,5.14286
2022-09-28T03:40:11.962Z,5.14286
2022-09-28T03:41:11.993Z,4.64286
2022-09-28T03:42:12.031Z,5.35714
2022-09-28T03:43:12.063Z,4.92857
2022-09-28T03:44:12.099Z,5.21429
2022-09-28T03:45:12.137Z,5
2022-09-28T03:46:12.211Z,5.42857
2022-09-28T03:47:12.203Z,5.21429
2022-09-28T03:48:12.242Z,5
2022-09-28T03:49:12.272Z,4.92857
2022-09-28T03:50:12.295Z,4.64286
2022-09-28T03:51:12.335Z,5.14286
2022-09-28T03:52:12.371Z,5.42857
2022-09-28T03:53:12.397Z,5.35714
2022-09-28T03:54:12.428Z,5.5
2022-09-28T03:55:12.465Z,5.42857
2022-09-28T03:56:12.502Z,5.42857
2022-09-28T03:57:12.535Z,5.35714
2022-09-28T03:58:12.571Z,5
2022-09-28T03:59:12.609Z,5.64286
2022-09-28T04:00:12.645Z,5.64286
2022-09-28T04:01:16.460Z,4.64286
2022-09-28T04:02:12.832Z,5.42857
2022-09-28T04:03:12.752Z,5
2022-09-28T04:04:12.782Z,5.64286
2022-09-28T04:05:12.813Z,5.5
2022-09-28T04:06:12.865Z,5.5
2022-09-28T04:07:12.893Z,5
2022-09-28T04:08:12.917Z,5.85714
2022-09-28T04:09:12.948Z,5.14286
2022-09-28T04:10:12.982Z,5.64286
2022-09-28T04:11:13.016Z,5.21429
2022-09-28T04:12:13.047Z,5.71429
2022-09-28T04:13:13.077Z,6
2022-09-28T04:14:13.110Z,5.42857
2022-09-28T04:15:13.148Z,5.35714
2022-09-28T04:16:13.212Z,5.42857
2022-09-28T04:17:13.221Z,5.35714
2022-09-28T04:18:13.264Z,6.35714
2022-09-28T04:19:13.335Z,5.92857
2022-09-28T04:20:13.338Z,6
2022-09-28T04:21:13.364Z,5.35714
2022-09-28T04:22:13.400Z,5.71429
2022-09-28T04:23:13.428Z,6
2022-09-28T04:24:13.463Z,5.85714
2022-09-28T04:25:13.493Z,5.85714
2022-09-28T04:26:13.533Z,5.35714
2022-09-28T04:27:13.571Z,5.92857
2022-09-28T04:28:13.607Z,5.85714
2022-09-28T04:29:13.747Z,6.64286
2022-09-28T04:30:13.671Z,6.35714
2022-09-28T04:31:13.719Z,5.85714
2022-09-28T04:32:13.731Z,6.42857
2022-09-28T04:33:13.792Z,6.42857
2022-09-28T04:34:13.805Z,5.92857
2022-09-28T04:35:13.834Z,6.5
2022-09-28T04:36:13.865Z,5.85714
2022-09-28T04:37:13.916Z,6.14286
2022-09-28T04:38:13.941Z,6.21429
2022-09-28T04:39:14.145Z,5.92857
2022-09-28T04:40:14.018Z,5.71429
2022-09-28T04:41:14.055Z,5.92857
2022-09-28T04:42:14.086Z,6.42857
2022-09-28T04:43:14.125Z,6.21429
2022-09-28T04:44:14.155Z,5.92857
2022-09-28T04:45:14.189Z,5.92857
2022-09-28T04:46:14.278Z,6.14286
2022-09-28T04:47:14.264Z,5.42857
2022-09-28T04:48:14.292Z,6.14286
2022-09-28T04:49:14.464Z,5.64286
2022-09-28T04:50:14.363Z,6.14286
2022-09-28T04:51:14.394Z,5.85714
2022-09-28T04:52:18.248Z,5.64286
2022-09-28T04:53:14.455Z,5.42857
2022-09-28T04:54:14.492Z,6.21429
2022-09-28T04:55:14.529Z,6
2022-09-28T04:56:14.564Z,5.71429
2022-09-28T04:57:14.597Z,6.35714
2022-09-28T04:58:14.632Z,6.14286
2022-09-28T04:59:14.743Z,6
2022-09-28T05:00:14.700Z,5.71429
2022-09-28T05:01:14.844Z,8.14286
2022-09-28T05:02:14.853Z,7.35714
2022-09-28T05:03:14.805Z,6.21429
2022-09-28T05:04:14.836Z,5.5
2022-09-28T05:05:14.882Z,5.85714
2022-09-28T05:06:14.924Z,6.21429
2022-09-28T05:07:14.943Z,5.64286
2022-09-28T05:08:14.981Z,6.21429
2022-09-28T05:09:15.110Z,6
2022-09-28T05:10:15.044Z,5.5
2022-09-28T05:11:15.082Z,5.85714
2022-09-28T05:12:15.108Z,6.21429
2022-09-28T05:13:15.132Z,6.64286
2022-09-28T05:14:15.171Z,6.21429
2022-09-28T05:15:15.208Z,6.14286
2022-09-28T05:16:15.284Z,6.21429
2022-09-28T05:17:15.267Z,6.35714
2022-09-28T05:18:15.301Z,6.5
2022-09-28T05:19:15.387Z,6.42857
2022-09-28T05:20:15.377Z,6.64286
2022-09-28T05:21:15.418Z,6.5
2022-09-28T05:22:15.445Z,6.14286
2022-09-28T05:23:15.506Z,6
2022-09-28T05:24:15.516Z,6.35714
2022-09-28T05:25:15.548Z,6.14286
2022-09-28T05:26:15.581Z,6
2022-09-28T05:27:15.603Z,6.14286
2022-09-28T05:28:15.638Z,6.14286
2022-09-28T05:29:15.781Z,6.64286
2022-09-28T05:30:15.708Z,6.5
2022-09-28T05:31:15.853Z,5.92857
2022-09-28T05:32:15.780Z,6.35714
2022-09-28T05:33:15.810Z,5.92857
2022-09-28T05:34:15.850Z,6.35714
2022-09-28T05:35:15.883Z,5.71429
2022-09-28T05:36:15.902Z,6.85714
2022-09-28T05:37:15.936Z,6.92857
2022-09-28T05:38:15.974Z,6.64286
2022-09-28T05:39:16.024Z,6.14286
2022-09-28T05:40:16.084Z,6.92857
2022-09-28T05:41:16.071Z,6.71429
2022-09-28T05:42:16.097Z,6.21429
2022-09-28T05:43:16.123Z,6.92857
2022-09-28T05:44:16.302Z,6.64286
2022-09-28T05:45:16.193Z,6.42857
2022-09-28T05:46:16.269Z,6.14286
2022-09-28T05:47:16.257Z,6.71429
2022-09-28T05:48:16.291Z,6.14286
2022-09-28T05:49:16.319Z,6.21429
2022-09-28T05:50:16.354Z,6.92857
2022-09-28T05:51:16.383Z,6.35714
2022-09-28T05:52:16.416Z,6
2022-09-28T05:53:16.445Z,6.5
2022-09-28T05:54:16.724Z,5.64286
2022-09-28T05:55:16.528Z,6.35714
2022-09-28T05:56:16.568Z,6.21429
2022-09-28T05:57:16.590Z,6.14286
2022-09-28T05:58:16.624Z,6.35714
2022-09-28T05:59:16.655Z,6.5
2022-09-28T06:00:16.690Z,6.71429
2022-09-28T06:01:16.768Z,6.35714
2022-09-28T06:02:16.824Z,6.5
2022-09-28T06:03:16.800Z,6.21429
2022-09-28T06:04:17.087Z,5.35714
2022-09-28T06:05:16.865Z,5.85714
2022-09-28T06:06:16.894Z,5.92857
2022-09-28T06:07:16.930Z,6.21429
2022-09-28T06:08:16.960Z,6.64286
2022-09-28T06:09:16.989Z,6.5
2022-09-28T06:10:17.021Z,6.35714
2022-09-28T06:11:17.045Z,6.42857
2022-09-28T06:12:17.078Z,6.42857
2022-09-28T06:13:17.100Z,6
2022-09-28T06:14:17.251Z,6.71429
2022-09-28T06:15:17.166Z,7.5
2022-09-28T06:16:17.312Z,6.71429
2022-09-28T06:17:17.230Z,6.35714
2022-09-28T06:18:17.250Z,6.14286
2022-09-28T06:19:17.301Z,6.92857
2022-09-28T06:20:17.324Z,6.21429
2022-09-28T06:21:17.370Z,6
2022-09-28T06:22:17.392Z,6.35714
2022-09-28T06:23:17.428Z,6.35714
2022-09-28T06:24:17.609Z,6.64286
2022-09-28T06:25:17.495Z,6.71429
2022-09-28T06:26:17.533Z,7.21429
2022-09-28T06:27:17.561Z,6.5
2022-09-28T06:28:17.592Z,6.92857
2022-09-28T06:29:19.476Z,6.14286
2022-09-28T06:30:17.659Z,6.92857
2022-09-28T06:31:17.724Z,6
2022-09-28T06:32:17.721Z,6.21429
2022-09-28T06:33:17.757Z,6.35714
2022-09-28T06:34:17.978Z,6.21429
2022-09-28T06:35:17.815Z,6.42857
2022-09-28T06:36:17.854Z,6.5
2022-09-28T06:37:17.883Z,6
2022-09-28T06:38:17.923Z,5.92857
2022-09-28T06:39:17.957Z,6.5
2022-09-28T06:40:18.056Z,5.92857
2022-09-28T06:41:18.016Z,6.5
2022-09-28T06:42:18.040Z,6.21429
2022-09-28T06:43:18.083Z,7
2022-09-28T06:44:18.214Z,6.21429
2022-09-28T06:45:18.148Z,6.21429
2022-09-28T06:46:18.266Z,6.85714
2022-09-28T06:47:18.204Z,6.5
2022-09-28T06:48:18.244Z,6.71429
2022-09-28T06:49:19.618Z,6.14286
2022-09-28T06:50:18.321Z,6.42857
2022-09-28T06:51:18.360Z,6.5
2022-09-28T06:52:18.392Z,10.3571
2022-09-28T06:53:18.426Z,17.6429
2022-09-28T06:54:18.653Z,11.4286
2022-09-28T06:55:18.486Z,8.14286
2022-09-28T06:56:18.526Z,7.42857
2022-09-28T06:57:18.553Z,6.64286
2022-09-28T06:58:18.594Z,6.64286
2022-09-28T06:59:18.626Z,6.14286
2022-09-28T07:00:18.666Z,6.21429
2022-09-28T07:01:18.824Z,6.92857
2022-09-28T07:02:18.821Z,6.71429
2022-09-28T07:03:18.771Z,5.92857
2022-09-28T07:04:19.003Z,5.92857
2022-09-28T07:05:18.847Z,6.5
2022-09-28T07:06:18.878Z,6.92857
2022-09-28T07:07:18.917Z,6.64286
2022-09-28T07:08:18.946Z,7
2022-09-28T07:09:30.043Z,6.71429
2022-09-28T07:10:19.011Z,6.35714
2022-09-28T07:11:19.045Z,6.14286
2022-09-28T07:12:19.077Z,6.35714
2022-09-28T07:13:45.686Z,6.71429
2022-09-28T07:14:31.399Z,6.85714
2022-09-28T07:15:19.179Z,6.85714
2022-09-28T07:16:22.842Z,7.35714
2022-09-28T07:17:19.285Z,7.14286
2022-09-28T07:18:19.348Z,6.92857
2022-09-28T07:19:19.312Z,7.5
2022-09-28T07:20:19.864Z,6.71429
2022-09-28T07:21:26.616Z,7
2022-09-28T07:22:23.013Z,7.21429
2022-09-28T07:23:19.968Z,6.85714
2022-09-28T07:24:20.095Z,8.14286
2022-09-28T07:25:19.530Z,7.5
2022-09-28T07:26:22.410Z,7.64286
2022-09-28T07:27:19.603Z,6.64286
2022-09-28T07:28:19.630Z,7.14286
2022-09-28T07:29:19.656Z,6.85714
2022-09-28T07:30:19.691Z,6.85714
2022-09-28T07:31:19.831Z,7.85714
2022-09-28T07:32:19.766Z,7.35714
2022-09-28T07:33:19.790Z,7.21429
2022-09-28T07:34:19.828Z,7.35714
2022-09-28T07:35:19.866Z,7.14286
2022-09-28T07:36:19.911Z,7
2022-09-28T07:37:19.936Z,6.92857
2022-09-28T07:38:19.970Z,7.71429
2022-09-28T07:39:20.011Z,6.92857
2022-09-28T07:40:20.114Z,7.42857
2022-09-28T07:41:20.070Z,7.35714
2022-09-28T07:42:20.097Z,7
2022-09-28T07:43:20.128Z,8.64286
2022-09-28T07:44:20.159Z,7.71429
2022-09-28T07:45:20.194Z,7.92857
2022-09-28T07:46:20.262Z,7.42857
2022-09-28T07:47:20.261Z,7.85714
2022-09-28T07:48:20.296Z,7.42857
2022-09-28T07:49:20.466Z,7.21429
2022-09-28T07:50:20.373Z,7.42857
2022-09-28T07:51:20.395Z,7.71429
2022-09-28T07:52:20.432Z,7.5
2022-09-28T07:53:20.457Z,7.42857
2022-09-28T07:54:20.490Z,7.64286
2022-09-28T07:55:20.523Z,7.35714
2022-09-28T07:56:20.566Z,7.92857
2022-09-28T07:57:20.593Z,7.42857
2022-09-28T07:58:20.627Z,7.14286
2022-09-28T07:59:20.665Z,8.35714
2022-09-28T08:00:20.706Z,8.85714
2022-09-28T08:01:20.771Z,8
2022-09-28T08:02:20.814Z,8
2022-09-28T08:03:20.810Z,8
2022-09-28T08:04:20.840Z,7.64286
2022-09-28T08:05:20.874Z,7.21429
2022-09-28T08:06:20.909Z,7.64286
2022-09-28T08:07:23.886Z,7.42857
2022-09-28T08:08:20.978Z,7.42857
2022-09-28T08:09:21.012Z,7.14286
2022-09-28T08:10:21.041Z,7.85714
2022-09-28T08:11:21.075Z,7.64286
2022-09-28T08:12:21.113Z,6.92857
2022-09-28T08:13:23.460Z,7.42857
2022-09-28T08:14:21.175Z,7.14286
2022-09-28T08:15:21.214Z,7.35714
2022-09-28T08:16:21.347Z,7.14286
2022-09-28T08:17:21.283Z,7.35714
2022-09-28T08:18:21.318Z,6.92857
2022-09-28T08:19:21.349Z,6.71429
2022-09-28T08:20:21.385Z,7.21429
2022-09-28T08:21:21.416Z,7.5
2022-09-28T08:22:21.444Z,6.92857
2022-09-28T08:23:21.474Z,7.14286
2022-09-28T08:24:21.515Z,7
2022-09-28T08:25:21.545Z,6.85714
2022-09-28T08:26:21.586Z,6.92857
2022-09-28T08:27:21.612Z,7.5
2022-09-28T08:28:21.650Z,7.64286
2022-09-28T08:29:21.676Z,7.85714
2022-09-28T08:30:21.763Z,7.5
2022-09-28T08:31:21.779Z,6.85714
2022-09-28T08:32:21.766Z,6.64286
2022-09-28T08:33:21.795Z,7.14286
2022-09-28T08:34:21.834Z,6.85714
2022-09-28T08:35:21.866Z,6.71429
2022-09-28T08:36:21.903Z,6.92857
2022-09-28T08:37:21.933Z,7.35714
2022-09-28T08:38:21.970Z,7.14286
2022-09-28T08:39:22.009Z,7.35714
2022-09-28T08:40:22.194Z,7
2022-09-28T08:41:22.079Z,6.5
2022-09-28T08:42:22.113Z,7.14286
2022-09-28T08:43:22.149Z,6.85714
2022-09-28T08:44:22.183Z,6.64286
2022-09-28T08:45:23.288Z,6.85714
2022-09-28T08:46:25.087Z,6.64286
2022-09-28T08:47:22.286Z,7.92857
2022-09-28T08:48:22.321Z,5.92857
2022-09-28T08:49:30.743Z,7.21429
2022-09-28T08:50:22.380Z,6.64286
2022-09-28T08:51:22.411Z,6.5
2022-09-28T08:52:22.446Z,6.92857
2022-09-28T08:53:22.473Z,7.21429
2022-09-28T08:54:22.503Z,7.35714
2022-09-28T08:55:22.542Z,7.14286
2022-09-28T08:56:22.571Z,7.21429
2022-09-28T08:57:22.611Z,7
2022-09-28T08:58:22.640Z,7.21429
2022-09-28T08:59:22.677Z,7.5
2022-09-28T09:00:22.709Z,7.92857
2022-09-28T09:01:22.783Z,6.92857
2022-09-28T09:02:22.870Z,7.14286
2022-09-28T09:03:22.802Z,7
2022-09-28T09:04:22.834Z,7.5
2022-09-28T09:05:22.867Z,7.35714
2022-09-28T09:06:22.891Z,7.14286
2022-09-28T09:07:22.928Z,7.14286
2022-09-28T09:08:22.967Z,6.92857
2022-09-28T09:09:22.989Z,6.85714
2022-09-28T09:10:23.016Z,7
2022-09-28T09:11:23.057Z,7.21429
2022-09-28T09:12:23.091Z,6.64286
2022-09-28T09:13:23.128Z,6.92857
2022-09-28T09:14:23.159Z,6.21429
2022-09-28T09:15:23.189Z,7
2022-09-28T09:16:23.288Z,6.71429
2022-09-28T09:17:23.254Z,6.71429
2022-09-28T09:18:23.282Z,6.64286
2022-09-28T09:19:23.315Z,6.21429
2022-09-28T09:20:23.343Z,6.21429
2022-09-28T09:21:23.377Z,5.71429
2022-09-28T09:22:23.407Z,6.35714
2022-09-28T09:23:23.441Z,5.35714
2022-09-28T09:24:23.473Z,5.92857
2022-09-28T09:25:23.494Z,5.5
2022-09-28T09:26:26.190Z,5.64286
2022-09-28T09:27:23.559Z,5.64286
2022-09-28T09:28:23.591Z,5.64286
2022-09-28T09:29:23.624Z,5.42857
2022-09-28T09:30:23.653Z,5.35714
2022-09-28T09:31:23.716Z,5.85714
2022-09-28T09:32:23.709Z,4.92857
2022-09-28T09:33:23.735Z,5.5
2022-09-28T09:34:23.768Z,5
2022-09-28T09:35:27.996Z,6.14286
2022-09-28T09:36:23.847Z,4.64286
2022-09-28T09:37:23.866Z,4.42857
2022-09-28T09:38:23.894Z,4.71429
2022-09-28T09:39:23.931Z,4.64286
2022-09-28T09:40:24.046Z,4.42857
2022-09-28T09:41:23.985Z,3.92857
2022-09-28T09:42:24.028Z,4.71429
2022-09-28T09:43:27.998Z,4.42857
2022-09-28T09:44:24.083Z,4.71429
2022-09-28T09:45:24.116Z,3.92857
2022-09-28T09:46:24.186Z,3.42857
2022-09-28T09:47:24.173Z,4
2022-09-28T09:48:24.206Z,3.85714
2022-09-28T09:49:24.223Z,3.5
2022-09-28T09:50:24.261Z,3.5
2022-09-28T09:51:24.300Z,3.85714
2022-09-28T09:52:24.343Z,3.5
2022-09-28T09:53:24.347Z,3.64286
2022-09-28T09:54:24.385Z,3.92857
2022-09-28T09:55:29.636Z,3.5
2022-09-28T09:56:24.442Z,3.64286
2022-09-28T09:57:24.473Z,3.42857
2022-09-28T09:58:24.510Z,3.71429
2022-09-28T09:59:24.543Z,3.5
2022-09-28T10:00:24.580Z,3.5
2022-09-28T10:01:24.641Z,3.42857
2022-09-28T10:02:24.707Z,3.5
2022-09-28T10:03:24.663Z,3.71429
2022-09-28T10:04:24.698Z,3.35714
2022-09-28T10:05:24.734Z,3.14286
2022-09-28T10:06:24.769Z,3.35714
2022-09-28T10:07:24.800Z,3.35714
2022-09-28T10:08:24.828Z,3.21429
2022-09-28T10:09:24.869Z,3.42857
2022-09-28T10:10:24.894Z,3.21429
2022-09-28T10:11:24.928Z,3.35714
2022-09-28T10:12:24.956Z,4.14286
2022-09-28T10:13:24.993Z,2.92857
2022-09-28T10:14:25.021Z,2.85714
2022-09-28T10:15:25.049Z,3.14286
2022-09-28T10:16:25.119Z,2.85714
2022-09-28T10:17:25.120Z,2.71429
2022-09-28T10:18:25.156Z,2.71429
2022-09-28T10:19:25.186Z,2.71429
2022-09-28T10:20:25.213Z,2.71429
2022-09-28T10:21:25.243Z,2.71429
2022-09-28T10:22:25.280Z,3.35714
2022-09-28T10:23:25.309Z,2.71429
2022-09-28T10:24:25.340Z,2.71429
2022-09-28T10:25:25.377Z,2.85714
2022-09-28T10:26:25.615Z,2.5
2022-09-28T10:27:25.452Z,2.5
2022-09-28T10:28:25.487Z,3.64286
2022-09-28T10:29:25.517Z,2.5
2022-09-28T10:30:25.561Z,2.5
2022-09-28T10:31:25.584Z,2.5
2022-09-28T10:32:25.617Z,2.5
2022-09-28T10:33:25.649Z,2.92857
2022-09-28T10:34:25.681Z,2.42857
2022-09-28T10:35:25.713Z,2.35714
2022-09-28T10:36:25.744Z,2.14286
2022-09-28T10:37:25.772Z,2.64286
2022-09-28T10:38:25.808Z,2.21429
2022-09-28T10:39:25.846Z,2.21429
2022-09-28T10:40:25.946Z,2.35714
2022-09-28T10:41:25.898Z,2.21429
2022-09-28T10:42:25.934Z,2.64286
2022-09-28T10:43:25.971Z,1.92857
2022-09-28T10:44:26.002Z,2.71429
2022-09-28T10:45:26.068Z,2.35714
2022-09-28T10:46:26.127Z,2
2022-09-28T10:47:26.101Z,1.85714
2022-09-28T10:48:26.147Z,2.35714
2022-09-28T10:49:26.168Z,2.14286
2022-09-28T10:50:26.208Z,2.35714
2022-09-28T10:51:26.238Z,2.5
2022-09-28T10:52:26.272Z,2.14286
2022-09-28T10:53:26.312Z,2.14286
2022-09-28T10:54:26.336Z,2
2022-09-28T10:55:26.367Z,3.35714
2022-09-28T10:56:26.399Z,2.5
2022-09-28T10:57:26.429Z,2.42857
2022-09-28T10:58:26.468Z,2.14286
2022-09-28T10:59:26.495Z,2.42857
2022-09-28T11:00:26.529Z,2.42857
2022-09-28T11:01:26.604Z,2
2022-09-28T11:02:26.702Z,2.35714
2022-09-28T11:03:26.621Z,2.14286
2022-09-28T11:04:26.644Z,2.21429
2022-09-28T11:05:26.681Z,2.35714
2022-09-28T11:06:26.715Z,2
2022-09-28T11:07:26.767Z,2.14286
2022-09-28T11:08:26.784Z,2.21429
2022-09-28T11:09:29.860Z,2
2022-09-28T11:10:26.847Z,2.85714
2022-09-28T11:11:26.880Z,2.21429
2022-09-28T11:12:26.915Z,2.64286
2022-09-28T11:13:26.949Z,2.5
2022-09-28T11:14:26.981Z,2.42857
2022-09-28T11:15:27.017Z,2
2022-09-28T11:16:27.127Z,2.14286
2022-09-28T11:17:27.087Z,2
2022-09-28T11:18:27.119Z,1.92857
2022-09-28T11:19:27.154Z,2.64286
2022-09-28T11:20:28.182Z,2.21429
2022-09-28T11:21:27.224Z,2.14286
2022-09-28T11:22:27.243Z,2.35714
2022-09-28T11:23:27.290Z,1.92857
2022-09-28T11:24:27.577Z,2
2022-09-28T11:25:27.350Z,2.35714
2022-09-28T11:26:27.385Z,2.42857
2022-09-28T11:27:27.419Z,2.35714
2022-09-28T11:28:27.456Z,2.5
2022-09-28T11:29:27.497Z,2.21429
2022-09-28T11:30:27.581Z,2.35714
2022-09-28T11:31:27.558Z,2.42857
2022-09-28T11:32:27.587Z,2.35714
2022-09-28T11:33:27.625Z,2.64286
2022-09-28T11:34:36.408Z,2.21429
2022-09-28T11:35:27.693Z,2.35714
2022-09-28T11:36:27.729Z,2.42857
2022-09-28T11:37:27.764Z,2.5
2022-09-28T11:38:27.804Z,2.42857
2022-09-28T11:39:27.824Z,2.35714
2022-09-28T11:40:27.894Z,2.85714
2022-09-28T11:41:27.886Z,3.42857
2022-09-28T11:42:27.920Z,3
2022-09-28T11:43:27.956Z,2.21429
2022-09-28T11:44:31.091Z,2.14286
2022-09-28T11:45:28.017Z,2
2022-09-28T11:46:28.095Z,2.21429
2022-09-28T11:47:28.096Z,3
2022-09-28T11:48:28.124Z,2.14286
2022-09-28T11:49:28.150Z,2.21429
2022-09-28T11:50:28.187Z,2.14286
2022-09-28T11:51:28.220Z,2.64286
2022-09-28T11:52:28.251Z,2.35714
2022-09-28T11:53:28.283Z,2.21429
2022-09-28T11:54:28.323Z,2.35714
2022-09-28T11:55:28.355Z,2.35714
2022-09-28T11:56:28.387Z,2
2022-09-28T11:57:28.441Z,2.35714
2022-09-28T11:58:28.459Z,2.14286
2022-09-28T11:59:28.494Z,2
2022-09-28T12:00:28.532Z,2.35714
2022-09-28T12:01:28.554Z,1.85714
2022-09-28T12:02:28.696Z,2.21429
2022-09-28T12:03:28.782Z,2.14286
2022-09-28T12:04:28.660Z,2.14286
2022-09-28T12:05:28.704Z,2.42857
2022-09-28T12:06:28.732Z,2.35714
2022-09-28T12:07:28.767Z,2.35714
2022-09-28T12:08:28.795Z,2.14286
2022-09-28T12:09:28.829Z,1.85714
2022-09-28T12:10:28.861Z,2.21429
2022-09-28T12:11:28.885Z,2
2022-09-28T12:12:28.913Z,1.92857
2022-09-28T12:13:28.956Z,2.14286
2022-09-28T12:14:28.993Z,1.92857
2022-09-28T12:15:29.428Z,1.85714
2022-09-28T12:17:00.909Z,1.85714
2022-09-28T12:17:29.117Z,1.71429
2022-09-28T12:18:29.114Z,2.64286
2022-09-28T12:19:29.150Z,1.85714
2022-09-28T12:20:29.190Z,1.71429
2022-09-28T12:21:29.230Z,2
2022-09-28T12:22:29.245Z,1.85714
2022-09-28T12:23:29.277Z,2.35714
2022-09-28T12:24:29.311Z,1.85714
2022-09-28T12:25:29.336Z,3
2022-09-28T12:26:29.368Z,1.85714
2022-09-28T12:27:29.403Z,1.71429